Bei Facebook empfehlenBei Twitter postenGoogle plusPinterest

Das Wetter im Erzgebirge am 23.02.2015

Wetter und Klima am 23.02.2015 Holzhau im Erzgebirge (630m ü.NN)
Letzte gemessene Temperatur und Uhrzeit der Messung23:45:00 Uhr1.40 °C
Temperatur (Maximum / Höchstwert) und Uhrzeit der Messung13:15:00 Uhr4.40 °C
Temperatur (Minimum / Tiefstwert) und Uhrzeit der Messung00:00:00-3.90 °C
Errechneter Absolutwert der Temperaturschwankungen zwischen Tmin und Tmax des Tages8.30 K
Errechnete Tagesmitteltemperatur0.05208 °C
Gesamt - Niederschlag des Tages (in flüssiger Form)0.00 Liter / m²
Luftdruck (Maximum / Höchstwert) und Zeitpunkt der Messung01:00:00 Uhr1006.20 hPa
Luftdruck (Minimum / Tiefstwert) und Zeitpunkt der Messung17:00:00 Uhr996.80 hPa
Errechneter Absolutwert der Luftdruckschwankungen des Tages9.40 hPa
Höchste gemessene Windgeschwindigkeit und Uhrzeit der Messung22:30:00 Uhr17.64 km/h
Errechnete Windhäufigkeit in Relation zu den Messwerten des Tages17.70833 %
Niedrigste Windkühle (Windchill) und Zeitpunkt der Messung05:30:00 Uhr-4.70 °C
Taupunkt (Maximum / Höchstwert) und Uhrzeit der Messung13:00:00 Uhr0.90 °C
Taupunkt (Minimum / Tiefstwert) und Uhrzeit der Messung00:00:00-5.60 °C
Anzahl der automatisch eingelesenen Messwerte 96

Detaillierte Wetter- und Klima- Messwerte für den 23.02.2015 in Holzhau im Erzgebirge (630m ü.NN)
ZeitTemperaturLuftdruckRel. LuftfeuchteWindWindrichtungWindchillTaupunktNiederschlag l/m²
23:45:001.40 °C998.80 hPa90.00 %-0.10 °C 
23:30:001.30 °C998.90 hPa90.00 %-0.20 °C 
23:15:001.30 °C998.90 hPa91.00 %0.00 °C 
23:00:001.30 °C999.00 hPa91.00 %0.00 °C 
22:45:001.10 °C999.00 hPa91.00 %7.92 km/hSW-1.40 °C-0.20 °C 
22:30:000.60 °C999.00 hPa91.00 %17.64 km/hSSW-4.10 °C-0.70 °C 
22:15:000.10 °C999.00 hPa91.00 %9.00 km/hSW-2.90 °C-1.20 °C 
22:00:000.20 °C999.00 hPa91.00 %-1.10 °C 
21:45:000.20 °C998.80 hPa91.00 %-1.10 °C 
21:30:000.10 °C998.80 hPa90.00 %-1.30 °C 
21:15:000.20 °C998.80 hPa90.00 %-1.20 °C 
21:00:000.20 °C998.70 hPa90.00 %-1.20 °C 
20:45:000.30 °C998.80 hPa90.00 %-1.10 °C 
20:30:000.30 °C998.80 hPa90.00 %-1.10 °C 
20:15:000.30 °C998.70 hPa90.00 %-1.10 °C 
20:00:000.20 °C998.30 hPa90.00 %-1.20 °C 
19:45:000.20 °C998.10 hPa90.00 %-1.20 °C 
19:30:000.20 °C998.10 hPa90.00 %-1.20 °C 
19:15:000.10 °C997.90 hPa90.00 %-1.30 °C 
19:00:000.00 °C997.90 hPa90.00 %7.56 km/hSW-2.60 °C-1.60 °C 
18:45:000.10 °C997.70 hPa89.00 %-1.50 °C 
18:30:000.10 °C997.30 hPa89.00 %-1.50 °C 
18:15:000.30 °C997.20 hPa89.00 %-1.30 °C 
18:00:000.30 °C997.20 hPa89.00 %-1.30 °C 
17:45:000.40 °C996.90 hPa89.00 %-1.20 °C 
17:30:000.40 °C997.10 hPa89.00 %-1.20 °C 
17:15:000.60 °C997.00 hPa88.00 %-1.20 °C 
17:00:000.80 °C996.80 hPa88.00 %7.56 km/hS-1.70 °C-1.00 °C 
16:45:000.80 °C997.00 hPa87.00 %-1.10 °C 
16:30:000.90 °C997.10 hPa87.00 %-1.00 °C 
16:15:001.00 °C997.00 hPa86.00 %8.28 km/hSW-1.60 °C-1.10 °C 
16:00:001.10 °C997.00 hPa86.00 %-1.00 °C 
15:45:001.10 °C997.20 hPa85.00 %-1.10 °C 
15:30:001.40 °C997.30 hPa83.00 %-1.20 °C 
15:15:001.80 °C997.40 hPa82.00 %-0.90 °C 
15:00:002.20 °C997.80 hPa81.00 %-0.70 °C 
14:45:002.40 °C997.70 hPa81.00 %-0.50 °C 
14:30:002.60 °C997.50 hPa80.00 %-0.50 °C 
14:15:003.00 °C997.60 hPa79.00 %-0.30 °C 
14:00:003.30 °C997.70 hPa78.00 %-0.20 °C 
13:45:003.50 °C997.80 hPa77.00 %-0.10 °C 
13:30:003.90 °C998.20 hPa77.00 %0.20 °C 
13:15:004.40 °C998.30 hPa77.00 %0.70 °C 
13:00:004.20 °C998.50 hPa79.00 %9.00 km/hSW1.90 °C0.90 °C 
12:45:003.90 °C998.60 hPa79.00 %0.60 °C 
12:30:003.50 °C998.30 hPa82.00 %0.70 °C 
12:15:002.90 °C998.80 hPa84.00 %9.36 km/hSW0.30 °C0.50 °C 
12:00:002.40 °C999.00 hPa86.00 %0.30 °C 
11:45:001.60 °C999.10 hPa88.00 %-0.20 °C 
11:30:001.10 °C999.20 hPa88.00 %-0.70 °C 
11:15:000.90 °C999.40 hPa88.00 %1.44 km/hSSW0.90 °C-0.90 °C 
11:00:000.60 °C999.60 hPa89.00 %-1.00 °C 
10:45:000.40 °C999.60 hPa89.00 %9.36 km/hSSW-2.70 °C-1.20 °C 
10:30:000.20 °C999.60 hPa89.00 %7.20 km/hSW-2.20 °C-1.40 °C 
10:15:000.10 °C999.60 hPa89.00 %5.76 km/hSSW-1.80 °C-1.50 °C 
10:00:000.20 °C999.80 hPa89.00 %-1.40 °C 
09:45:000.10 °C999.70 hPa89.00 %-1.50 °C 
09:30:000.10 °C999.90 hPa89.00 %5.04 km/hS-1.50 °C-1.50 °C 
09:15:000.20 °C999.90 hPa90.00 %2.88 km/hSSW0.20 °C-1.20 °C 
09:00:000.10 °C1000.10 hPa90.00 %-1.30 °C 
08:45:000.10 °C1000.00 hPa90.00 %-1.30 °C 
08:30:00-0.20 °C1000.20 hPa90.00 %-1.80 °C 
08:15:00-0.40 °C1000.60 hPa90.00 %-2.00 °C 
08:00:00-0.50 °C1000.80 hPa91.00 %-1.90 °C 
07:45:00-0.60 °C1000.90 hPa91.00 %-2.00 °C 
07:30:00-0.60 °C1001.00 hPa91.00 %-2.00 °C 
07:15:00-0.70 °C1001.10 hPa91.00 %-2.10 °C 
07:00:00-0.70 °C1001.30 hPa91.00 %-2.10 °C 
06:45:00-0.70 °C1001.70 hPa91.00 %-2.10 °C 
06:30:00-0.80 °C1001.70 hPa91.00 %6.84 km/hSSO-3.30 °C-2.20 °C 
06:15:00-0.90 °C1001.90 hPa91.00 %-2.30 °C 
06:00:00-0.80 °C1002.20 hPa91.00 %5.76 km/hSSO-2.80 °C-2.20 °C 
05:45:00-0.70 °C1002.20 hPa91.00 %-2.10 °C 
05:30:00-0.60 °C1002.20 hPa91.00 %12.60 km/hWSW-4.70 °C-2.00 °C 
05:15:00-0.50 °C1002.40 hPa91.00 %-1.90 °C 
05:00:00-0.50 °C1002.30 hPa92.00 %-1.80 °C 
04:45:00-0.60 °C1002.50 hPa92.00 %-1.90 °C 
04:30:00-0.80 °C1002.90 hPa92.00 %-2.10 °C 
04:15:00-1.30 °C1002.90 hPa91.00 %-2.70 °C 
04:00:00-1.90 °C1003.00 hPa91.00 %-3.30 °C 
03:45:00-2.50 °C1003.30 hPa91.00 %-3.90 °C 
03:30:00-2.80 °C1003.40 hPa91.00 %-4.20 °C 
03:15:00-2.90 °C1003.80 hPa90.00 %-4.50 °C 
03:00:00-2.90 °C1004.20 hPa90.00 %-4.50 °C 
02:45:00-3.00 °C1004.60 hPa90.00 %-4.60 °C 
02:30:00-3.10 °C1005.00 hPa90.00 %-4.70 °C 
02:15:00-3.20 °C1005.20 hPa90.00 %-4.80 °C 
02:00:00-3.20 °C1005.30 hPa90.00 %-4.80 °C 
01:45:00-3.00 °C1005.60 hPa90.00 %-4.60 °C 
01:30:00-2.90 °C1005.60 hPa90.00 %-4.50 °C 
01:15:00-3.10 °C1006.00 hPa90.00 %-4.70 °C 
01:00:00-3.20 °C1006.20 hPa90.00 %-4.80 °C 
00:45:00-3.30 °C1006.10 hPa90.00 %-4.90 °C 
00:30:00-3.20 °C1006.10 hPa90.00 %-4.80 °C 
00:15:00-3.60 °C1006.20 hPa90.00 %-5.20 °C 
00:00:00-3.90 °C1006.20 hPa89.00 %-5.60 °C 

Permanenter Link zu dieser Seite: Wetter im Erzgebirge am 23.02.2015
Performance-Info: Die Erstellung der Seite / Statistik(en) / Tabelle(n) erforderte 5 Datenbankserver-Abfrage(n) und dauerte 116 Millisekunden. (Dieser Messwert ist von der Gesamt-Auslastung des Servers abhängig.)
Erzgebirge - Wetter | Erzgebirge - Wetter (Mobilgeräte) | Komplette Klimadatenbank